130x130 sq 1430153078721 alexis4231cropped

Pure Light Images

Baltimore , MD
CONTACT US
CONTACT US

LOCATION

Baltimore, MD 21214 US (map)

PHONE

410-937-9957

WEBSITE

View website
Please let this vendor know that you found them on the WeddingWire Network.

ABOUT US

As an accomplished newspaper photographer of more than 15 years, I combine photojournalism and unique environmental portraiture to create gorgeous images on your wedding day!
... Read more
As an accomplished newspaper photographer of more than 15 years, I combine photojournalism and unique environmental portraiture to create gorgeous images on your wedding day!

Please visit us at purelightimagesphoto.com. Read less
Photography

PHOTOS

130x130 sq 1369452306115 christa3202 426
130x130 sq 1369114742367 ash2268
130x130 sq 1369114875664 emily2560 387
130x130 sq 1369114679239 2300
130x130 sq 1369114803418 cassie1401 77
130x130 sq 1369114653481 ld13155
130x130 sq 1369115469781 theresa3322 575
130x130 sq 1369114929686 heather3676 647
130x130 sq 1369114852628 court1299 62
130x130 sq 1369114966980 jaclyn2799 446
130x130 sq 1369114662533 ld13997
130x130 sq 1369114670657 ld15440
130x130 sq 1369114687418 akia2136
130x130 sq 1369114913099 heather1018 3
130x130 sq 1369114644580 ld13123
130x130 sq 1369114867545 emily1935 247bw
130x130 sq 1369114696209 anne1881 162
130x130 sq 1369114707194 anne2801 354
130x130 sq 1369114717266 ash0340
130x130 sq 1369114731153 ash1065
130x130 sq 1369114751019 ayanna1284 83cloned
130x130 sq 1369114765749 bishop2424 352cropped
130x130 sq 1369114772840 brandy0127
130x130 sq 1369114782549 brandy0178
130x130 sq 1369114793020 cassie1131 24
130x130 sq 1369114842101 cheryl3008
130x130 sq 1369114861229 court1956 272
130x130 sq 1369114948869 jaclyn1430 69
130x130 sq 1369114921026 heather1715 197
130x130 sq 1369114939057 jaclyn1311 41
130x130 sq 1369115010851 jess1598 141
130x130 sq 1369114957639 jaclyn1815 161
130x130 sq 1369114975197 jaclyn2846 462
130x130 sq 1369114984011 jaclyn3226 588
130x130 sq 1369114992219 jamie1230 46
130x130 sq 1369115002430 jess1033
130x130 sq 1369115018697 jess1728
130x130 sq 1369115026354 jess2256 343
130x130 sq 1369115036133 jess3447 629
130x130 sq 1369115045094 julie1639 17
130x130 sq 1369115054429 julie1670 18
130x130 sq 1369115064022 julie3724 75
130x130 sq 1369115075307 kathy1582 143
130x130 sq 1369115084790 kehdra1234 37
130x130 sq 1369115091412 kehdra4730 78
130x130 sq 1369115124748 kendra1109 15
130x130 sq 1369115132546 kendra1325 63
130x130 sq 1369115299793 leah1331 77
130x130 sq 1369115317199 leah3306 556
130x130 sq 1369115141684 kendra1476 113
130x130 sq 1369115151368 kendra2598 401   copy
130x130 sq 1369115194644 kristen2855 483cloned
130x130 sq 1369115160912 kendra3171 604
130x130 sq 1369115169509 kristen1237 52
130x130 sq 1369115199929 kristen3162 565
130x130 sq 1369115209186 kristy1711 136
130x130 sq 1369115218631 kristy2607 419
130x130 sq 1369115227790 krystal0218
130x130 sq 1369115236858 krystal0832
130x130 sq 1369115245908 krystal0858
130x130 sq 1369115188528 kristen2106 280
130x130 sq 1369115255321 krystal2015
130x130 sq 1369115265208 krystal2043
130x130 sq 1369115283960 laura3484 620
130x130 sq 1369115292414 lauren1635 176
130x130 sq 1369115325920 leah3476 587
130x130 sq 1369115333797 meka1237 61
130x130 sq 1369115341597 meka1966 259
130x130 sq 1369115350860 meka2742 425
130x130 sq 1369115359425 pan1880 179
130x130 sq 1369115367682 rabia1669 172
130x130 sq 1369115374658 rachel575
130x130 sq 1369115381158 renee1108 16
130x130 sq 1369115390278 renee1561 81
130x130 sq 1369115398632 renee3733 669
130x130 sq 1369115406642 rheba and matt 2685a
130x130 sq 1369115415291 saba2176 183
130x130 sq 1369115423601 shannon 89
130x130 sq 1369115432106 su1226 16
130x130 sq 1369115440272 su1258 17
130x130 sq 1369115448815 su1887 27
130x130 sq 1369115454455 su2023 33
130x130 sq 1369115460283 tayejake. 28
130x130 sq 1369115478405 wanda2020 260
130x130 sq 1369115484604 wanda2076 279
130x130 sq 1369452278820 mary3290 610
130x130 sq 1369452287709 esther2707
130x130 sq 1369452296438 ld19370 463
130x130 sq 1430793688270 ashley2004corrected
130x130 sq 1430794044093 madison2759
130x130 sq 1433868963077 alexis1113
130x130 sq 1433869311150 alexis1168
130x130 sq 1433869655608 alexis1329
130x130 sq 1433870035001 alexis1448
130x130 sq 1433870386722 alexis1853
130x130 sq 1433870730124 alexis2403
130x130 sq 1433871074182 alexis2471
130x130 sq 1433871424323 alexis2682
130x130 sq 1433871770986 alexis3162
130x130 sq 1433872122574 alexis3274
130x130 sq 1433872478488 alexis3551
130x130 sq 1433872848715 alexis3658
130x130 sq 1433873202164 alexis3867
130x130 sq 1433873541438 alexis3957 2
130x130 sq 1433873885098 alexis4116
130x130 sq 1433874251019 alexis4231cropped
130x130 sq 1433874615649 alexis4256
130x130 sq 1433874964637 alexis4423
130x130 sq 1433875317887 alexis4513
130x130 sq 1433882435900 alexis1263
130x130 sq 1433882780067 alexis1301
130x130 sq 1433883122060 alexis1489
130x130 sq 1433883465885 alexis1704 2
130x130 sq 1433883811430 alexis1835
130x130 sq 1433884170463 alexis1944
130x130 sq 1433884515053 alexis2374
130x130 sq 1433884857339 alexis2418
130x130 sq 1433885201831 alexis2895
130x130 sq 1433953812718 kristen1050
130x130 sq 1433953823183 kristen1077
130x130 sq 1433953832018 kristen1154
130x130 sq 1433953838688 kristen1168
130x130 sq 1433953846811 kristen1321
130x130 sq 1433953853486 kristen1437
130x130 sq 1433953861133 kristen1442
130x130 sq 1433953869303 kristen1764
130x130 sq 1433953878662 kristen1883
130x130 sq 1433953885566 kristen2051
130x130 sq 1433953894649 kristen2234
130x130 sq 1433953902161 kristen2461
130x130 sq 1433953908209 kristen2607
130x130 sq 1433953914732 kristen2672
130x130 sq 1433953921302 kristen2695
130x130 sq 1433953928404 kristen2837
130x130 sq 1439821730091 kim1926a
130x130 sq 1439822083987 kim1633
130x130 sq 1439822430068 cathy1097
130x130 sq 1439822777530 ll23460
130x130 sq 1439823118465 ll28152corrected
130x130 sq 1439845617958 sally1271
130x130 sq 1439845963074 sally1355
130x130 sq 1439845990106 sally1056
130x130 sq 1439846325829 kim1832a
130x130 sq 1439867651666 sally2240

INFO FOR PHOTOGRAPHY

What primary photographic style do you identify with?
Contemporary, Photojournalism, Portraiture
What photography services do you offer?
2nd Shooter, Add'l Hours, Engagement Shoot, High-Res, Liability Insurance, Multi. Locations, One Event/Day
What photography items do you offer?
Albums, Canvas, Digital Files, Flush Mount, Negatives, Prints, Proofs

REVIEWS

5.0
out of 5.0
5.0/5.0
5.0/5.0
5.0/5.0
5.0/5.0
5.0/5.0
Sort by
Default vendor profile pic
Lissa
Wedding:
6/11/2016
5.0/5.0
My husband and I were married in June 2016 and we started researching photographers about a year before our wedding. Somehow I ended up on Eventective (http://www.eventective.com/). I chose the photography category and signed up to receive quotes/information from photographers in the Baltimore area. Different photographers started contacting me, including Laurie DeWitt. I really enjoyed that Laurie was super friendly, very professional, honest, helpful, and not pushy. When I told her I was still researching photographers, she provided tips to help with my search. One thing to be mindful of when searching for your wedding photographer is that larger photography companies, with multiple photographers, may show you the work done by their best photographers, but may actually book a less experienced photographer whose work they didn’t show you. Laurie offered to meet with my husband and me for a consultation and we hired her that same day. I stayed in contact with her and about two weeks before the wedding we chatted on the phone and created a photography timeline of the wedding day. Laurie always made us feel at ease and the day of the wedding she even helped my bridesmaids put my wedding dress on me! She truly went above and beyond. She caught a lot of priceless moments from our wedding and wasn’t “in the way of” the festivities. A couple weeks after the wedding she sends you a link to see your wedding photos online (watermarked) and a jump drive with all your photos (not watermarked). Laurie is an accomplished wedding photojournalist of 18 years and you can definitely see it in her work. Mostly everyone who has seen the wedding photos tells me how “in the moment” and beautiful they look. Most importantly, her price is very comfortable and the quality of her images and her imagination for creating great shots demonstrates her exceptional photography skills. I highly recommend Laurie and look forward to hiring her for future events.
My husband and I were married in June 2016 and we started researching photographers about a year before our wedding. Read more...
My husband and I were married in June 2016 and we started researching photographers about a year before our wedding. Somehow I ended up on Eventective (http://www.eventective.com/). I chose the photography category and signed up to receive quotes/information from photographers in the Baltimore area. Different photographers started contacting me, including Laurie DeWitt. I really enjoyed that Laurie was super friendly, very professional, honest, helpful, and not pushy. When I told her I was still researching photographers, she provided tips to help with my search. One thing to be mindful of when searching for your wedding photographer is that larger photography companies, with multiple photographers, may show you the work done by their best photographers, but may actually book a less experienced photographer whose work they didn’t show you. Laurie offered to meet with my husband and me for a consultation and we hired her that same day. I stayed in contact with her and about two weeks before the wedding we chatted on the phone and created a photography timeline of the wedding day. Laurie always made us feel at ease and the day of the wedding she even helped my bridesmaids put my wedding dress on me! She truly went above and beyond. She caught a lot of priceless moments from our wedding and wasn’t “in the way of” the festivities. A couple weeks after the wedding she sends you a link to see your wedding photos online (watermarked) and a jump drive with all your photos (not watermarked). Laurie is an accomplished wedding photojournalist of 18 years and you can definitely see it in her work. Mostly everyone who has seen the wedding photos tells me how “in the moment” and beautiful they look. Most importantly, her price is very comfortable and the quality of her images and her imagination for creating great shots demonstrates her exceptional photography skills. I highly recommend Laurie and look forward to hiring her for future events. Read less
Services Used: Photography
Default vendor profile pic
Lissa
Wedding:
6/11/2016
5.0/5.0
My husband and I were married in June 2016 and we started researching photographers about a year before our wedding. First, we researched the average amount spent on wedding photographers. Somehow I ended up on Eventective (http://www.eventective.com/). I chose the photography category and signed up to receive quotes/information from photographers in the Baltimore area. Different photographers started contacting me, including Laurie DeWitt, owner of Pure Light Images. I really enjoyed that Laurie was super friendly, very professional, honest, helpful, and not pushy. When I told her I was still researching photographers, she provided tips to help with my search. One thing to be mindful of when searching for your wedding photographer is that larger photography companies, with multiple photographers, may show you the work done by their best photographers, but may actually book a less experienced photographer whose work they didn’t show you. It is also recommended to see at least 3 full weddings shots by the photographer you're considering hiring and that you read reviews about them. Laurie offered to meet with my husband and me for a consultation and we hired her that same day. I stayed in contact with her and about two weeks before the wedding we chatted on the phone and created a photography timeline of the wedding day. Laurie always made us feel at ease and the day of the wedding she even helped my bridesmaids put my wedding dress on! She truly went above and beyond. She caught a lot of priceless moments from our wedding and wasn’t “in the way of” the festivities. A couple weeks after the wedding she sends you a link to see your wedding photos online (watermarked) and a jump drive with all your photos (not watermarked). Laurie is an accomplished wedding photojournalist of 18 years and you can definitely see it in her work. Mostly everyone who has seen the wedding photos tells me how “in the moment” and beautiful they look. Most importantly, her price
My husband and I were married in June 2016 and we started researching photographers about a year before our wedding. Read more...
My husband and I were married in June 2016 and we started researching photographers about a year before our wedding. First, we researched the average amount spent on wedding photographers. Somehow I ended up on Eventective (http://www.eventective.com/). I chose the photography category and signed up to receive quotes/information from photographers in the Baltimore area. Different photographers started contacting me, including Laurie DeWitt, owner of Pure Light Images. I really enjoyed that Laurie was super friendly, very professional, honest, helpful, and not pushy. When I told her I was still researching photographers, she provided tips to help with my search. One thing to be mindful of when searching for your wedding photographer is that larger photography companies, with multiple photographers, may show you the work done by their best photographers, but may actually book a less experienced photographer whose work they didn’t show you. It is also recommended to see at least 3 full weddings shots by the photographer you're considering hiring and that you read reviews about them. Laurie offered to meet with my husband and me for a consultation and we hired her that same day. I stayed in contact with her and about two weeks before the wedding we chatted on the phone and created a photography timeline of the wedding day. Laurie always made us feel at ease and the day of the wedding she even helped my bridesmaids put my wedding dress on! She truly went above and beyond. She caught a lot of priceless moments from our wedding and wasn’t “in the way of” the festivities. A couple weeks after the wedding she sends you a link to see your wedding photos online (watermarked) and a jump drive with all your photos (not watermarked). Laurie is an accomplished wedding photojournalist of 18 years and you can definitely see it in her work. Mostly everyone who has seen the wedding photos tells me how “in the moment” and beautiful they look. Most importantly, her price Read less
Services Used: Photography
Default vendor profile pic
danielle
Wedding:
5/29/2016
4.9/5.0
Laurie was an absolute pleasure to work with! She did our engagement/maternity photos and wedding photos. It was a very comfortable experience, she was extremely professional and the photos turned out wonderful!! Would definitely recommend Laurie for any type of photography session and plan to use her again in the future!
Laurie was an absolute pleasure to work with! She did our engagement/maternity photos and wedding photos. It was a very Read more...
Laurie was an absolute pleasure to work with! She did our engagement/maternity photos and wedding photos. It was a very comfortable experience, she was extremely professional and the photos turned out wonderful!! Would definitely recommend Laurie for any type of photography session and plan to use her again in the future! Read less
Services Used: Photography
Default vendor profile pic
Xinting
Wedding:
5/28/2016
5.0/5.0
Laurie was very professional, she travelled to our wedding place and test different camera and lighting so that we could get get the best images. And we do! The images comes just 2 weeks after the wedding and looks fantastic! My mom was not at our wedding and she is so glad we have such a good photographer!
Laurie was very professional, she travelled to our wedding place and test different camera and lighting so that we could Read more...
Laurie was very professional, she travelled to our wedding place and test different camera and lighting so that we could get get the best images. And we do! The images comes just 2 weeks after the wedding and looks fantastic! My mom was not at our wedding and she is so glad we have such a good photographer! Read less
Services Used: Photography
Default vendor profile pic
Lauren
Wedding:
4/8/2016
5.0/5.0
After meeting Laurie for the first time, we knew that she was the one, and hiring her turned out to be one of the best decisions of our wedding. Laurie is personable, honest, direct, and very comfortable to be around. She was incredibly easy to work with and very responsive leading up to the wedding. There was never one moment where we regretted our decision, in fact, we constantly commented about how lucky we were to find her. We’ve been to many weddings in the area, but we have never seen a photographer work as hard as Laurie did on our wedding day. Many of our guests mentioned how dedicated she was to getting the perfect shot, and she was everywhere she needed to be for all the highlights of our wedding and reception without “getting in the way”. When we received our photos a month after the wedding we were blown away—the perfect mix of romantic pictures, party pictures, and artistic pictures. Laurie truly made us feel at home, and it truly made a difference in her photos. I can’t thank Laurie enough. She was absolutely a perfect match for us and we will be recommending her to everyone and anyone who is in the market for a photographer.
After meeting Laurie for the first time, we knew that she was the one, and hiring her turned out to be one of the best Read more...
After meeting Laurie for the first time, we knew that she was the one, and hiring her turned out to be one of the best decisions of our wedding. Laurie is personable, honest, direct, and very comfortable to be around. She was incredibly easy to work with and very responsive leading up to the wedding. There was never one moment where we regretted our decision, in fact, we constantly commented about how lucky we were to find her. We’ve been to many weddings in the area, but we have never seen a photographer work as hard as Laurie did on our wedding day. Many of our guests mentioned how dedicated she was to getting the perfect shot, and she was everywhere she needed to be for all the highlights of our wedding and reception without “getting in the way”. When we received our photos a month after the wedding we were blown away—the perfect mix of romantic pictures, party pictures, and artistic pictures. Laurie truly made us feel at home, and it truly made a difference in her photos. I can’t thank Laurie enough. She was absolutely a perfect match for us and we will be recommending her to everyone and anyone who is in the market for a photographer. Read less
Services Used: Photography
Default vendor profile pic
Jamal
Wedding:
4/1/2016
5.0/5.0
We cannot say enough great things about Laurie. She was amazing and tons of fun to work with. She was very accommodating when it came to our engagement photos, and she met us in Patapsco State Park. Laurie made us feel comfortable, and the overall experience was so much fun! Our wedding photos turned out absolutely amazing! Laurie was able to capture the all the most important moments and then some.
We cannot say enough great things about Laurie. She was amazing and tons of fun to work with. She was very accommodating Read more...
We cannot say enough great things about Laurie. She was amazing and tons of fun to work with. She was very accommodating when it came to our engagement photos, and she met us in Patapsco State Park. Laurie made us feel comfortable, and the overall experience was so much fun! Our wedding photos turned out absolutely amazing! Laurie was able to capture the all the most important moments and then some. Read less
Services Used: Photography
Default vendor profile pic
Anonymous
Wedding:
Recently Married
4.4/5.0
Laurie did an amazing job for our March wedding. From the moment Laurie arrived, she captured every moment of our special day. Her photos were beautiful and creative. I highly recommend Laurie as she is very professional, reliable, and kind.
Laurie did an amazing job for our March wedding. From the moment Laurie arrived, she captured every moment of our special Read more...
Laurie did an amazing job for our March wedding. From the moment Laurie arrived, she captured every moment of our special day. Her photos were beautiful and creative. I highly recommend Laurie as she is very professional, reliable, and kind. Read less
Services Used: Photography
Default vendor profile pic
Sarah
Wedding:
10/25/2015
5.0/5.0
Laurie was so great to work with! She is very responsive, reliable, and the best part- her pictures are amazing! She is truly a great value.
Laurie was so great to work with! She is very responsive, reliable, and the best part- her pictures are amazing! She is Read more...
Laurie was so great to work with! She is very responsive, reliable, and the best part- her pictures are amazing! She is truly a great value. Read less
Services Used: Photography
Default vendor profile pic
Lauren
Wedding:
10/24/2015
5.0/5.0
My wife and I got married this past October and Laurie was our photographer. To say she was amazing would be an understatement. Not only did she capture every moment and really truly captured us as a couple, she made us feel like a friend was taking our pictures. She remembered our likes/dislikes, our family dynamics, and was willing to do whatever we wanted to feel comfortable. She will be our life-long photographer and we couldn't be happier to say that! You will NOT be disappointed on both the professional and personal level!
My wife and I got married this past October and Laurie was our photographer. To say she was amazing would be an Read more...
My wife and I got married this past October and Laurie was our photographer. To say she was amazing would be an understatement. Not only did she capture every moment and really truly captured us as a couple, she made us feel like a friend was taking our pictures. She remembered our likes/dislikes, our family dynamics, and was willing to do whatever we wanted to feel comfortable. She will be our life-long photographer and we couldn't be happier to say that! You will NOT be disappointed on both the professional and personal level! Read less
Services Used: Photography
Default vendor profile pic
Lauren
Wedding:
10/10/2015
5.0/5.0
My wife and I got married this past October and Laurie was our photographer. To say she was amazing would be an understatement. Not only did she capture every moment and really truly captured us as a couple, she made us feel like a friend was taking our pictures. She remembered our likes/dislikes, our family dynamics, and was willing to do whatever we wanted to feel comfortable. She will be our life-long photographer and we couldn't be happier to say that! You will NOT be disappointed on both the professional and personal level!
My wife and I got married this past October and Laurie was our photographer. To say she was amazing would be an Read more...
My wife and I got married this past October and Laurie was our photographer. To say she was amazing would be an understatement. Not only did she capture every moment and really truly captured us as a couple, she made us feel like a friend was taking our pictures. She remembered our likes/dislikes, our family dynamics, and was willing to do whatever we wanted to feel comfortable. She will be our life-long photographer and we couldn't be happier to say that! You will NOT be disappointed on both the professional and personal level! Read less
Services Used: Photography

MAP

 
Baltimore, MD 21214 See On Map
Thanks for visiting the vendor listing for Pure Light Images
Please let this vendor know that you found them on the WeddingWire Network.
Ww logo
220x220 1430153078721 alexis4231cropped